Time;durP1;ratioP1;P1;durP2;ratioP2;P2;SDS_P1;SDS_P2;PMS_P1;PMS_P2;Temp;Humidity;BMP_temperature;BMP_pressure;BME280_temperature;BME280_humidity;BME280_pressure;Samples;Min_cycle;Max_cycle;Signal;HPM_P1;HPM_P2
2024/01/13 00:01:47;;;;;;;21.17;14.45;;;;;;;4.12;79.47;102838.22;5027999;28;20033;-64
2024/01/13 00:04:12;;;;;;;22.70;14.70;;;;;;;4.12;79.47;102834.63;5011400;28;20090;-63
2024/01/13 00:06:38;;;;;;;21.10;14.63;;;;;;;4.13;79.41;102833.63;5008456;28;20526;-63
2024/01/13 00:09:03;;;;;;;22.77;14.48;;;;;;;4.11;79.44;102825.53;5008778;28;20041;-63
2024/01/13 00:11:28;;;;;;;19.08;14.30;;;;;;;4.14;79.31;102827.09;5027459;28;20029;-64
2024/01/13 00:13:54;;;;;;;17.08;13.85;;;;;;;4.13;79.45;102823.47;5008318;28;20109;-63
2024/01/13 00:16:19;;;;;;;20.63;13.05;;;;;;;4.12;79.50;102820.88;5007851;28;20030;-63
2024/01/13 00:18:44;;;;;;;16.38;13.05;;;;;;;4.12;79.62;102820.88;5007455;28;20026;-63
2024/01/13 00:21:10;;;;;;;18.70;13.65;;;;;;;4.12;79.73;102816.25;5008156;28;20026;-63
2024/01/13 00:23:36;;;;;;;13.90;12.00;;;;;;;4.12;79.48;102810.75;5008012;28;20032;-64
2024/01/13 00:26:01;;;;;;;17.10;11.88;;;;;;;4.12;79.90;102802.50;5011831;28;20025;-63
2024/01/13 00:28:26;;;;;;;14.43;11.73;;;;;;;4.13;79.52;102807.00;5056952;28;20059;-63
2024/01/13 00:30:52;;;;;;;14.02;11.25;;;;;;;4.12;79.49;102808.00;5027319;28;20498;-63
2024/01/13 00:33:17;;;;;;;15.90;11.05;;;;;;;4.14;79.72;102802.34;5010815;28;20098;-63
2024/01/13 00:35:42;;;;;;;16.52;10.90;;;;;;;4.13;79.91;102798.75;5011471;28;20018;-63
2024/01/13 00:38:08;;;;;;;14.60;11.52;;;;;;;4.15;79.57;102799.44;5011193;28;20034;-63
2024/01/13 00:40:33;;;;;;;16.60;11.52;;;;;;;4.15;79.49;102799.44;5012070;28;20458;-64
2024/01/13 00:42:59;;;;;;;14.40;11.30;;;;;;;4.15;79.74;102793.06;5031164;28;20120;-63
2024/01/13 00:45:24;;;;;;;14.10;11.32;;;;;;;4.14;80.00;102789.47;5054803;28;20028;-63
2024/01/13 00:47:50;;;;;;;14.30;12.20;;;;;;;4.14;79.65;102786.72;5041170;28;20037;-64
2024/01/13 00:50:15;;;;;;;13.90;11.10;;;;;;;4.15;79.99;102787.59;5027926;28;20025;-63
2024/01/13 00:52:40;;;;;;;13.88;11.10;;;;;;;4.16;79.81;102779.16;5011117;28;20069;-63
2024/01/13 00:55:06;;;;;;;14.55;11.73;;;;;;;4.16;79.69;102784.66;5011923;28;20036;-63
2024/01/13 00:57:31;;;;;;;14.40;11.93;;;;;;;4.16;79.81;102783.81;5013228;28;20089;-64
2024/01/13 00:59:56;;;;;;;15.18;11.10;;;;;;;4.16;79.93;102778.31;5009959;28;20040;-64
2024/01/13 01:02:22;;;;;;;13.32;11.43;;;;;;;4.16;79.59;102781.06;5010819;28;20591;-63
2024/01/13 01:04:47;;;;;;;17.77;11.85;;;;;;;4.18;79.53;102774.38;5010906;28;20030;-63
2024/01/13 01:07:12;;;;;;;14.40;11.27;;;;;;;4.18;79.65;102770.78;5001504;28;20052;-63
2024/01/13 01:09:38;;;;;;;16.52;11.90;;;;;;;4.19;79.76;102767.84;4998500;28;20113;-63
2024/01/13 01:12:03;;;;;;;14.07;11.63;;;;;;;4.18;79.91;102768.88;5010169;28;20136;-63
2024/01/13 01:14:29;;;;;;;13.75;11.40;;;;;;;4.16;80.01;102768.16;5009779;28;20522;-63
2024/01/13 01:16:54;;;;;;;16.40;11.82;;;;;;;4.15;79.63;102766.44;5010601;28;20468;-63
2024/01/13 01:19:19;;;;;;;15.18;11.73;;;;;;;4.16;79.67;102767.31;5010499;28;20030;-63
2024/01/13 01:21:45;;;;;;;16.25;11.95;;;;;;;4.17;79.67;102755.31;5008983;28;20053;-63
2024/01/13 01:24:11;;;;;;;17.48;12.35;;;;;;;4.15;79.55;102760.94;5010520;28;20029;-63
2024/01/13 01:26:36;;;;;;;14.18;11.25;;;;;;;4.18;79.28;102755.13;5004634;28;20036;-63
2024/01/13 01:29:02;;;;;;;13.43;11.88;;;;;;;4.17;79.61;102752.56;5010021;28;20427;-63
2024/01/13 01:31:27;;;;;;;17.38;12.15;;;;;;;4.19;79.27;102751.34;5010558;28;20029;-63
2024/01/13 01:33:52;;;;;;;16.60;12.57;;;;;;;4.18;79.66;102748.78;5010534;28;20028;-63
2024/01/13 01:36:18;;;;;;;17.20;12.73;;;;;;;4.17;79.65;102742.44;5009919;28;20034;-63
2024/01/13 01:38:43;;;;;;;17.73;13.05;;;;;;;4.17;79.33;102747.94;5010330;28;20430;-63
2024/01/13 01:41:10;;;;;;;15.48;13.07;;;;;;;4.17;79.51;102736.06;5013788;28;20480;-64
2024/01/13 01:43:36;;;;;;;14.55;12.32;;;;;;;4.18;79.51;102733.16;4997895;28;20049;-63
2024/01/13 01:46:03;;;;;;;14.45;11.80;;;;;;;4.16;79.33;102735.19;4993690;28;20105;-63
2024/01/13 01:48:37;;;;;;;17.77;13.25;;;;;;;4.19;79.58;102736.75;4990806;28;20413;-63
2024/01/13 01:51:04;;;;;;;16.27;12.77;;;;;;;4.17;79.05;102736.06;4990401;28;20035;-63
2024/01/13 01:53:29;;;;;;;15.15;13.15;;;;;;;4.15;79.39;102741.72;4991030;28;20121;-63
2024/01/13 01:55:55;;;;;;;14.07;12.57;;;;;;;4.15;79.42;102738.13;5001044;28;20030;-64
2024/01/13 01:58:21;;;;;;;17.55;13.70;;;;;;;4.15;79.32;102738.97;5008780;28;20033;-63
2024/01/13 02:00:47;;;;;;;18.98;14.25;;;;;;;4.16;79.35;102731.59;5007445;28;20062;-64
2024/01/13 02:03:13;;;;;;;16.35;13.38;;;;;;;4.13;79.15;102727.28;4996953;28;20038;-63
2024/01/13 02:05:39;;;;;;;16.55;13.55;;;;;;;4.14;79.41;102723.50;5009477;28;20052;-63
2024/01/13 02:08:05;;;;;;;20.20;14.30;;;;;;;4.15;79.26;102730.72;5010189;28;20503;-63
2024/01/13 02:10:30;;;;;;;16.50;14.15;;;;;;;4.16;79.00;102721.44;5004657;28;20037;-64
2024/01/13 02:12:55;;;;;;;18.25;14.20;;;;;;;4.15;79.01;102714.22;5020506;28;20572;-63
2024/01/13 02:15:21;;;;;;;17.48;14.68;;;;;;;4.16;79.16;102715.09;5009376;28;20090;-64
2024/01/13 02:17:46;;;;;;;16.60;14.77;;;;;;;4.14;79.30;102709.78;5008718;28;20096;-63
2024/01/13 02:20:12;;;;;;;19.13;15.13;;;;;;;4.15;78.56;102703.25;5010107;28;20112;-63
2024/01/13 02:22:37;;;;;;;19.48;15.27;;;;;;;4.16;79.09;102702.19;5008605;28;20359;-64
2024/01/13 02:25:04;;;;;;;16.73;14.88;;;;;;;4.15;78.65;102699.63;5008668;28;20030;-64
2024/01/13 02:27:30;;;;;;;17.00;15.13;;;;;;;4.15;78.44;102695.00;5007721;28;20522;-64
2024/01/13 02:29:55;;;;;;;16.48;14.77;;;;;;;4.18;78.94;102689.19;5009048;28;20113;-63
2024/01/13 02:32:21;;;;;;;17.00;14.57;;;;;;;4.17;78.84;102687.47;5037139;28;20110;-63
2024/01/13 02:34:47;;;;;;;17.45;15.00;;;;;;;4.19;78.70;102679.91;5009604;28;20504;-64
2024/01/13 02:37:12;;;;;;;17.42;14.85;;;;;;;4.19;78.30;102682.66;5008758;28;20038;-63
2024/01/13 02:39:38;;;;;;;17.33;14.10;;;;;;;4.18;78.64;102683.69;5013149;28;20046;-63
2024/01/13 02:42:04;;;;;;;17.27;15.15;;;;;;;4.17;78.40;102676.47;5009573;28;20080;-63
2024/01/13 02:44:29;;;;;;;19.42;14.82;;;;;;;4.18;78.25;102683.69;5008972;28;20022;-63
2024/01/13 02:46:55;;;;;;;18.05;15.00;;;;;;;4.18;78.35;102678.19;5008646;28;20041;-63
2024/01/13 02:49:20;;;;;;;17.08;15.23;;;;;;;4.18;78.43;102672.69;5050948;28;20033;-63
2024/01/13 02:51:45;;;;;;;19.10;15.48;;;;;;;4.20;78.48;102675.25;4990282;28;20030;-63
2024/01/13 02:54:11;;;;;;;17.05;15.23;;;;;;;4.18;78.04;102672.69;5017405;28;20472;-63
2024/01/13 02:56:36;;;;;;;17.60;15.20;;;;;;;4.18;77.59;102656.19;5009035;28;20109;-63
2024/01/13 02:59:01;;;;;;;19.13;14.98;;;;;;;4.21;78.20;102663.25;5009316;28;20041;-63
2024/01/13 03:01:32;;;;;;;17.20;14.60;;;;;;;4.22;77.90;102651.22;5008645;28;20033;-63
2024/01/13 03:03:57;;;;;;;18.25;14.70;;;;;;;4.22;77.40;102655.88;5009430;28;20026;-63
2024/01/13 03:06:25;;;;;;;16.15;14.32;;;;;;;4.24;77.97;102651.03;5034609;28;20038;-64
2024/01/13 03:08:54;;;;;;;17.17;15.38;;;;;;;4.23;77.52;102646.59;5031494;28;20058;-63
2024/01/13 03:11:20;;;;;;;16.67;14.88;;;;;;;4.23;77.54;102641.94;5009001;28;20465;-63
2024/01/13 03:13:46;;;;;;;15.93;14.15;;;;;;;4.23;77.13;102641.94;5008358;28;20041;-63
2024/01/13 03:16:12;;;;;;;15.65;14.05;;;;;;;4.22;77.54;102636.63;5009286;28;20022;-64
2024/01/13 03:18:37;;;;;;;15.82;13.45;;;;;;;4.22;77.15;102625.63;5009110;28;20678;-63
2024/01/13 03:21:04;;;;;;;16.10;14.18;;;;;;;4.22;77.39;102625.63;5013096;28;20547;-64
2024/01/13 03:23:29;;;;;;;15.20;13.60;;;;;;;4.21;76.97;102619.28;5016766;28;20069;-64
2024/01/13 03:25:55;;;;;;;13.73;12.32;;;;;;;4.23;77.43;102606.22;5006950;28;20071;-63
2024/01/13 03:28:21;;;;;;;12.85;11.65;;;;;;;4.23;77.34;102602.59;5008186;28;20029;-64
2024/01/13 03:30:46;;;;;;;12.55;11.35;;;;;;;4.25;77.56;102595.06;5008805;28;20144;-63
2024/01/13 03:33:12;;;;;;;12.18;11.00;;;;;;;4.24;76.97;102594.19;5008613;28;20485;-63
2024/01/13 03:35:37;;;;;;;13.63;10.52;;;;;;;4.23;77.36;102591.63;5006827;28;20018;-63
2024/01/13 03:38:02;;;;;;;13.93;11.00;;;;;;;4.25;77.80;102593.19;5023552;28;20041;-63
2024/01/13 03:40:27;;;;;;;10.55;9.32;;;;;;;4.26;77.45;102592.13;5025544;28;20507;-63
2024/01/13 03:42:53;;;;;;;11.55;10.32;;;;;;;4.25;77.81;102597.81;5003585;28;20034;-63
2024/01/13 03:45:18;;;;;;;9.80;8.85;;;;;;;4.25;77.75;102597.81;5007985;28;20491;-64
2024/01/13 03:47:43;;;;;;;9.70;8.80;;;;;;;4.28;77.58;102589.22;5008474;28;20026;-63
2024/01/13 03:50:09;;;;;;;9.25;8.20;;;;;;;4.28;78.02;102578.22;5007709;28;20663;-64
2024/01/13 03:52:34;;;;;;;8.82;7.97;;;;;;;4.29;77.92;102571.72;5008371;28;20030;-63
2024/01/13 03:55:00;;;;;;;8.60;7.72;;;;;;;4.27;78.17;102582.00;5015961;28;20049;-64
2024/01/13 03:57:25;;;;;;;7.85;7.10;;;;;;;4.29;78.55;102585.47;5006464;28;20113;-63
2024/01/13 03:59:50;;;;;;;8.15;6.50;;;;;;;4.29;78.45;102579.97;4991920;28;20030;-63
2024/01/13 04:02:16;;;;;;;7.22;6.53;;;;;;;4.28;78.25;102570.81;5007473;28;20029;-63
2024/01/13 04:04:41;;;;;;;7.63;6.82;;;;;;;4.27;78.48;102568.25;5011284;28;20056;-64
2024/01/13 04:07:07;;;;;;;7.10;6.50;;;;;;;4.28;78.34;102569.97;5019037;28;20070;-64
2024/01/13 04:09:33;;;;;;;7.20;6.50;;;;;;;4.29;78.75;102577.22;5031548;28;20049;-64
2024/01/13 04:11:58;;;;;;;6.80;6.20;;;;;;;4.30;78.79;102570.66;5030844;28;20059;-63
2024/01/13 04:14:23;;;;;;;6.97;6.25;;;;;;;4.29;78.57;102558.81;5027997;28;20038;-63
2024/01/13 04:16:48;;;;;;;7.05;6.45;;;;;;;4.31;78.75;102566.88;5008139;28;20409;-64
2024/01/13 04:19:15;;;;;;;7.28;6.10;;;;;;;4.29;78.80;102549.72;5010420;28;20040;-63
2024/01/13 04:21:41;;;;;;;6.75;6.07;;;;;;;4.26;79.04;102542.66;5018159;28;20052;-63
2024/01/13 04:24:06;;;;;;;6.82;6.10;;;;;;;4.28;78.94;102539.72;5005185;28;20496;-63
2024/01/13 04:26:32;;;;;;;6.65;6.07;;;;;;;4.28;79.13;102547.97;5011734;28;20058;-63
2024/01/13 04:28:58;;;;;;;7.05;6.45;;;;;;;4.27;79.12;102535.28;5011667;28;20030;-63
2024/01/13 04:31:23;;;;;;;6.68;6.05;;;;;;;4.26;79.52;102537.16;5011167;28;20087;-63
2024/01/13 04:33:48;;;;;;;6.85;6.22;;;;;;;4.27;79.55;102538.03;5006987;28;20030;-63
2024/01/13 04:36:13;;;;;;;6.88;6.18;;;;;;;4.28;79.55;102539.72;5010305;28;20049;-63
2024/01/13 04:38:39;;;;;;;8.02;7.25;;;;;;;4.24;79.73;102538.34;5020905;28;20032;-63
2024/01/13 04:41:04;;;;;;;7.15;6.53;;;;;;;4.26;80.00;102541.81;5031132;28;20101;-63
2024/01/13 04:43:29;;;;;;;8.27;7.45;;;;;;;4.24;80.13;102532.84;5030794;28;20489;-63
2024/01/13 04:45:55;;;;;;;7.38;6.68;;;;;;;4.23;80.02;102528.41;5030450;28;20029;-64
2024/01/13 04:48:21;;;;;;;8.15;6.95;;;;;;;4.25;80.17;102534.59;5030743;28;20170;-63
2024/01/13 04:50:46;;;;;;;7.40;6.72;;;;;;;4.25;80.58;102531.84;5029211;28;20086;-63
2024/01/13 04:53:11;;;;;;;8.00;7.20;;;;;;;4.26;80.18;102536.31;5010471;28;20477;-64
2024/01/13 04:55:36;;;;;;;8.55;7.75;;;;;;;4.27;80.24;102536.13;5021191;28;20073;-63
2024/01/13 04:58:02;;;;;;;8.30;7.50;;;;;;;4.26;80.52;102528.91;5010593;28;20037;-63
2024/01/13 05:00:28;;;;;;;7.65;6.95;;;;;;;4.24;80.82;102522.72;5009935;28;20060;-63
2024/01/13 05:02:53;;;;;;;8.38;7.57;;;;;;;4.24;80.94;102528.22;5010639;28;20477;-64
2024/01/13 05:05:19;;;;;;;8.30;7.50;;;;;;;4.26;80.78;102528.91;5010673;28;20030;-63
2024/01/13 05:07:44;;;;;;;8.38;7.43;;;;;;;4.25;80.45;102529.09;5020050;28;20044;-64
2024/01/13 05:10:09;;;;;;;9.30;8.20;;;;;;;4.23;80.39;102528.41;5023923;28;20041;-64
2024/01/13 05:12:35;;;;;;;8.60;7.70;;;;;;;4.25;80.58;102529.97;5010606;28;20880;-64
2024/01/13 05:15:00;;;;;;;9.88;8.52;;;;;;;4.25;81.00;102526.34;5009076;28;20090;-64
2024/01/13 05:17:25;;;;;;;12.48;9.95;;;;;;;4.24;80.72;102525.47;5010567;28;20078;-64
2024/01/13 05:19:50;;;;;;;11.85;10.63;;;;;;;4.24;81.11;102516.38;5010407;28;20111;-63
2024/01/13 05:22:16;;;;;;;12.68;10.73;;;;;;;4.22;81.25;102521.19;5010408;28;20167;-64
2024/01/13 05:24:42;;;;;;;13.38;11.68;;;;;;;4.23;81.36;102520.16;5016186;28;20030;-65
2024/01/13 05:27:07;;;;;;;15.73;13.57;;;;;;;4.22;81.58;102530.28;5022514;28;20040;-64
2024/01/13 05:29:33;;;;;;;13.25;11.95;;;;;;;4.24;81.09;102521.88;5027319;28;20038;-64
2024/01/13 05:31:58;;;;;;;15.77;12.43;;;;;;;4.23;81.38;102520.16;5016312;28;20022;-64
2024/01/13 05:34:23;;;;;;;15.25;13.40;;;;;;;4.22;81.51;102512.94;5021927;28;20032;-65
2024/01/13 05:36:48;;;;;;;17.63;14.70;;;;;;;4.23;81.56;102514.66;5008851;28;20045;-64
2024/01/13 05:39:14;;;;;;;17.30;14.77;;;;;;;4.23;81.71;102515.50;5017487;28;20091;-63
2024/01/13 05:41:39;;;;;;;20.50;15.00;;;;;;;4.23;81.71;102512.75;5010622;28;20026;-63
2024/01/13 05:44:04;;;;;;;17.02;15.13;;;;;;;4.23;81.49;102518.25;5009609;28;20030;-63
2024/01/13 05:46:29;;;;;;;18.77;15.77;;;;;;;4.23;81.53;102515.50;5008399;28;20026;-63
2024/01/13 05:48:55;;;;;;;18.35;16.45;;;;;;;4.24;81.90;102514.47;5008984;28;20033;-63
2024/01/13 05:51:20;;;;;;;21.48;18.20;;;;;;;4.23;81.81;102503.66;5012959;28;20040;-63
2024/01/13 05:53:46;;;;;;;21.45;17.58;;;;;;;4.22;81.50;102508.31;5020727;28;20075;-64
2024/01/13 05:56:11;;;;;;;19.30;17.13;;;;;;;4.23;81.47;102514.66;5012372;28;20057;-63
2024/01/13 05:58:37;;;;;;;24.30;18.75;;;;;;;4.24;81.77;102516.38;5015052;28;20616;-62
2024/01/13 06:01:03;;;;;;;22.02;17.63;;;;;;;4.25;81.89;102518.97;5006657;28;20460;-64
2024/01/13 06:03:28;;;;;;;22.60;18.77;;;;;;;4.26;81.43;102519.81;5015427;28;20036;-63
2024/01/13 06:05:53;;;;;;;21.13;18.88;;;;;;;4.25;81.29;102513.47;5073723;28;20114;-62
2024/01/13 06:08:19;;;;;;;22.52;20.05;;;;;;;4.24;81.75;102511.72;5038071;28;20045;-63
2024/01/13 06:10:44;;;;;;;25.60;20.40;;;;;;;4.24;81.61;102527.34;4999585;28;20139;-63
2024/01/13 06:13:10;;;;;;;24.08;21.17;;;;;;;4.24;81.64;102527.34;5025977;28;20079;-64
2024/01/13 06:15:36;;;;;;;24.33;21.58;;;;;;;4.24;81.86;102524.59;5026335;28;20053;-63
2024/01/13 06:18:01;;;;;;;25.58;21.02;;;;;;;4.24;81.25;102510.88;5009105;28;20030;-63
2024/01/13 06:20:26;;;;;;;24.20;21.70;;;;;;;4.26;81.50;102498.69;5009962;28;20029;-62
2024/01/13 06:22:52;;;;;;;24.23;21.55;;;;;;;4.27;81.44;102494.03;5009319;28;20507;-63
2024/01/13 06:25:17;;;;;;;25.65;22.13;;;;;;;4.26;81.78;102498.69;5008170;28;20042;-62
2024/01/13 06:27:42;;;;;;;28.33;23.40;;;;;;;4.27;81.26;102480.31;5005074;28;20038;-62
2024/01/13 06:30:10;;;;;;;28.50;24.10;;;;;;;4.27;81.53;102474.81;5008797;28;20555;-63
2024/01/13 06:32:36;;;;;;;26.92;23.08;;;;;;;4.24;81.44;102472.38;5010926;28;20044;-63
2024/01/13 06:35:01;;;;;;;27.65;23.40;;;;;;;4.27;81.36;102467.41;5007881;28;20108;-62
2024/01/13 06:37:26;;;;;;;27.20;23.27;;;;;;;4.28;81.69;102457.28;5008876;28;20033;-62
2024/01/13 06:39:52;;;;;;;27.27;22.83;;;;;;;4.26;81.63;102460.19;5008558;28;20046;-62
2024/01/13 06:42:17;;;;;;;28.50;23.73;;;;;;;4.26;81.67;102460.19;5008806;28;20041;-62
2024/01/13 06:44:42;;;;;;;26.83;24.00;;;;;;;4.25;81.67;102469.50;5004219;28;20033;-63
2024/01/13 06:47:07;;;;;;;27.65;24.17;;;;;;;4.27;81.85;102467.41;5009028;28;20034;-63
2024/01/13 06:49:33;;;;;;;28.20;22.92;;;;;;;4.27;81.83;102455.56;5010074;28;20071;-63
2024/01/13 06:51:59;;;;;;;29.25;24.50;;;;;;;4.26;81.64;102465.69;5010554;28;20044;-63
2024/01/13 06:54:24;;;;;;;27.65;24.33;;;;;;;4.27;81.61;102475.66;5009172;28;20034;-63
2024/01/13 06:56:49;;;;;;;26.98;24.05;;;;;;;4.26;81.41;102467.59;5006128;28;20037;-63
2024/01/13 06:59:15;;;;;;;28.02;23.67;;;;;;;4.27;82.04;102455.56;5006850;28;20473;-63
2024/01/13 07:01:40;;;;;;;28.67;24.25;;;;;;;4.27;81.79;102439.94;5008866;28;20030;-63
2024/01/13 07:04:05;;;;;;;26.90;24.05;;;;;;;4.25;81.74;102419.16;5008383;28;20029;-64
2024/01/13 07:06:31;;;;;;;27.88;24.88;;;;;;;4.25;81.93;102436.50;5008091;28;20030;-63
2024/01/13 07:08:57;;;;;;;28.67;22.73;;;;;;;4.26;81.61;102418.13;5009107;28;20125;-63
2024/01/13 07:11:23;;;;;;;27.75;24.80;;;;;;;4.26;82.08;102424.47;5010556;28;20038;-63
2024/01/13 07:13:48;;;;;;;26.20;23.27;;;;;;;4.27;82.18;102417.09;5019263;28;20045;-63
2024/01/13 07:16:13;;;;;;;30.67;26.10;;;;;;;4.26;81.72;102405.22;4998201;28;20029;-63
2024/01/13 07:18:39;;;;;;;30.85;24.45;;;;;;;4.27;81.45;102400.59;5015570;28;20029;-63
2024/01/13 07:21:05;;;;;;;28.50;23.98;;;;;;;4.30;82.01;102403.00;5008431;28;20183;-63
2024/01/13 07:23:31;;;;;;;27.60;23.80;;;;;;;4.26;81.60;102407.13;5009034;28;20033;-63
2024/01/13 07:25:56;;;;;;;26.25;23.42;;;;;;;4.27;81.67;102400.59;5008086;28;20038;-63
2024/01/13 07:28:22;;;;;;;28.42;24.08;;;;;;;4.27;81.73;102397.84;5011351;28;20014;-63
2024/01/13 07:30:47;;;;;;;29.45;23.92;;;;;;;4.28;81.75;102394.91;5022377;28;20037;-63
2024/01/13 07:33:13;;;;;;;29.38;25.23;;;;;;;4.26;82.03;102388.75;5026071;28;20366;-63
2024/01/13 07:35:38;;;;;;;28.90;24.25;;;;;;;4.24;81.63;102384.44;5007756;28;20057;-62
2024/01/13 07:38:03;;;;;;;29.52;23.85;;;;;;;4.29;82.12;102377.41;5005830;28;20049;-62
2024/01/13 07:40:29;;;;;;;27.77;23.90;;;;;;;4.30;81.89;102381.00;5026532;28;20420;-63
2024/01/13 07:42:54;;;;;;;28.20;24.23;;;;;;;4.28;82.03;102402.28;5058118;28;20091;-63
2024/01/13 07:45:19;;;;;;;29.10;23.70;;;;;;;4.29;81.65;102399.41;5013600;28;20030;-63
2024/01/13 07:47:46;;;;;;;29.10;23.73;;;;;;;4.28;81.66;102388.56;5009088;28;20438;-63
2024/01/13 07:50:11;;;;;;;29.15;24.40;;;;;;;4.30;82.04;102392.00;4988201;28;20095;-63
2024/01/13 07:52:36;;;;;;;30.60;24.05;;;;;;;4.29;82.03;102377.41;4988860;28;20530;-63
2024/01/13 07:55:02;;;;;;;30.45;24.83;;;;;;;4.29;81.75;102377.41;4988228;28;20454;-63
2024/01/13 07:57:29;;;;;;;31.33;23.75;;;;;;;4.29;81.86;102358.16;4988799;28;20054;-63
2024/01/13 07:59:54;;;;;;;27.08;23.88;;;;;;;4.30;81.78;102346.13;4988682;28;20022;-63
2024/01/13 08:02:20;;;;;;;27.30;23.70;;;;;;;4.31;81.87;102342.34;5016660;28;20033;-63
2024/01/13 08:04:45;;;;;;;28.83;24.95;;;;;;;4.30;81.54;102348.88;5028017;28;20025;-63
2024/01/13 08:07:10;;;;;;;26.88;23.85;;;;;;;4.28;81.82;102364.66;5067213;28;20017;-63
2024/01/13 08:09:36;;;;;;;28.45;24.40;;;;;;;4.30;82.01;102356.28;5001023;28;20033;-63
2024/01/13 08:12:02;;;;;;;26.73;23.83;;;;;;;4.31;82.10;102352.47;4997661;28;20034;-63
2024/01/13 08:14:27;;;;;;;25.67;22.98;;;;;;;4.33;81.71;102343.03;5002239;28;20022;-63
2024/01/13 08:16:52;;;;;;;26.20;23.40;;;;;;;4.32;81.89;102332.19;5007667;28;20033;-65
2024/01/13 08:19:18;;;;;;;26.10;23.13;;;;;;;4.35;82.01;102340.09;5004169;28;20034;-64
2024/01/13 08:21:43;;;;;;;26.05;23.23;;;;;;;4.32;82.00;102337.69;5012870;28;20064;-64
2024/01/13 08:24:08;;;;;;;27.88;23.55;;;;;;;4.34;81.76;102335.63;5009000;28;20113;-65
2024/01/13 08:26:35;;;;;;;27.75;23.23;;;;;;;4.34;81.78;102316.41;4997408;28;20041;-64
2024/01/13 08:29:01;;;;;;;26.42;23.58;;;;;;;4.34;82.11;102310.91;4999951;28;20026;-64
2024/01/13 08:31:26;;;;;;;26.52;23.08;;;;;;;4.34;81.96;102298.00;5007913;28;20030;-64
2024/01/13 08:33:51;;;;;;;28.58;23.70;;;;;;;4.36;81.65;102312.44;5014047;28;20030;-64
2024/01/13 08:36:17;;;;;;;29.08;24.95;;;;;;;4.33;81.90;102331.19;5007863;28;20030;-63
2024/01/13 08:38:44;;;;;;;28.73;24.25;;;;;;;4.33;81.94;102312.81;5008826;28;20041;-64
2024/01/13 08:41:10;;;;;;;27.23;24.30;;;;;;;4.33;82.08;102311.94;5005978;28;20030;-63
2024/01/13 08:43:35;;;;;;;27.27;23.60;;;;;;;4.34;82.24;102313.66;5007995;28;20040;-63
2024/01/13 08:46:00;;;;;;;26.40;23.35;;;;;;;4.36;82.42;102312.44;5000935;28;20053;-64
2024/01/13 08:48:26;;;;;;;26.98;24.02;;;;;;;4.36;82.17;102317.06;5007593;28;20474;-65
2024/01/13 08:50:51;;;;;;;28.80;24.23;;;;;;;4.36;82.16;102322.56;5010337;28;20030;-61
2024/01/13 08:53:16;;;;;;;27.33;24.42;;;;;;;4.35;82.23;102332.72;5009961;28;20088;-62
2024/01/13 08:55:41;;;;;;;29.42;25.48;;;;;;;4.35;82.22;102348.34;5011298;28;20041;-62
2024/01/13 08:58:07;;;;;;;30.33;26.08;;;;;;;4.36;82.39;102339.06;5011649;28;20051;-62
2024/01/13 09:00:32;;;;;;;30.42;26.83;;;;;;;4.37;82.16;102340.78;5013183;28;20400;-62
2024/01/13 09:02:57;;;;;;;33.30;28.00;;;;;;;4.35;82.48;102338.19;5057930;28;20032;-62
2024/01/13 09:05:23;;;;;;;29.20;26.02;;;;;;;4.38;82.03;102332.34;5029399;28;20030;-62
2024/01/13 09:07:48;;;;;;;33.53;26.65;;;;;;;4.38;81.95;102326.88;5025527;28;20120;-63
2024/01/13 09:10:13;;;;;;;31.42;27.30;;;;;;;4.39;82.45;102327.72;5020225;28;20127;-63
2024/01/13 09:12:39;;;;;;;31.75;27.48;;;;;;;4.38;82.14;102328.75;5010646;28;20030;-62
2024/01/13 09:15:06;;;;;;;34.72;27.35;;;;;;;4.40;82.03;102334.91;5011088;28;20018;-62
2024/01/13 09:17:32;;;;;;;32.53;27.52;;;;;;;4.39;82.12;102325.81;5011036;28;20056;-62
2024/01/13 09:19:57;;;;;;;31.75;27.52;;;;;;;4.37;82.26;102330.66;5010284;28;20026;-62
2024/01/13 09:22:22;;;;;;;31.80;27.58;;;;;;;4.38;82.26;102324.13;5019659;28;20057;-62
2024/01/13 09:24:48;;;;;;;32.05;27.55;;;;;;;4.39;82.21;102324.97;5030458;28;20380;-62
2024/01/13 09:27:16;;;;;;;32.50;27.38;;;;;;;4.39;82.07;102328.56;5007817;28;20022;-62
2024/01/13 09:29:41;;;;;;;33.45;28.50;;;;;;;4.39;81.95;102322.22;5000448;28;20039;-62
2024/01/13 09:32:07;;;;;;;31.38;26.65;;;;;;;4.41;82.26;102314.66;5010557;28;20112;-62
2024/01/13 09:34:32;;;;;;;27.85;24.90;;;;;;;4.38;82.32;102326.00;5009920;28;20669;-63
2024/01/13 09:36:58;;;;;;;30.55;26.40;;;;;;;4.41;82.14;102326.50;5010479;28;20026;-61
2024/01/13 09:39:24;;;;;;;28.45;24.75;;;;;;;4.39;82.17;102322.22;5009473;28;20363;-62
2024/01/13 09:41:49;;;;;;;29.27;25.63;;;;;;;4.40;82.02;102318.44;5007714;28;20080;-63
2024/01/13 09:44:24;;;;;;;28.38;25.05;;;;;;;4.40;82.08;102319.31;5010019;28;20026;-63
2024/01/13 09:46:51;;;;;;;29.50;23.88;;;;;;;4.41;82.11;102315.53;5028807;28;20033;-61
2024/01/13 09:49:18;;;;;;;29.85;23.92;;;;;;;4.42;82.00;102316.38;5003202;28;20030;-61
2024/01/13 09:51:45;;;;;;;25.83;23.05;;;;;;;4.43;82.00;102316.19;5010407;28;20061;-61
2024/01/13 09:54:29;;;;;;;27.35;24.42;;;;;;;4.45;82.06;102304.19;5010094;28;20105;-61
2024/01/13 09:56:56;;;;;;;26.95;24.05;;;;;;;4.43;82.04;102309.84;5023806;28;20044;-61
2024/01/13 09:59:25;;;;;;;29.83;23.70;;;;;;;4.42;81.88;102305.38;5082665;28;20023;-61
2024/01/13 10:01:51;;;;;;;28.58;23.95;;;;;;;4.41;81.98;102298.16;5112673;28;20066;-61
2024/01/13 10:04:17;;;;;;;26.30;23.42;;;;;;;4.39;82.21;102300.22;5112749;28;20026;-61
2024/01/13 10:06:43;;;;;;;26.13;23.35;;;;;;;4.40;81.87;102297.31;5070021;28;20034;-61
2024/01/13 10:09:10;;;;;;;27.85;23.40;;;;;;;4.42;82.01;102291.63;5008712;28;20040;-61
2024/01/13 10:11:36;;;;;;;26.15;22.30;;;;;;;4.45;81.99;102290.44;5009660;28;20038;-60
2024/01/13 10:14:02;;;;;;;25.20;22.58;;;;;;;4.43;81.87;102290.59;5006577;28;20615;-61
2024/01/13 10:16:29;;;;;;;25.45;22.73;;;;;;;4.46;81.64;102294.88;4999080;28;20794;-61
2024/01/13 10:18:55;;;;;;;24.98;22.40;;;;;;;4.45;81.67;102287.69;4994787;28;20030;-62
2024/01/13 10:21:22;;;;;;;24.35;21.70;;;;;;;4.44;81.55;102292.28;5005845;28;20026;-61
2024/01/13 10:23:47;;;;;;;25.83;22.40;;;;;;;4.46;81.63;102279.25;5012239;28;20033;-61
2024/01/13 10:26:13;;;;;;;26.95;22.60;;;;;;;4.46;81.75;102287.50;5006298;28;20079;-61
2024/01/13 10:28:38;;;;;;;26.88;22.35;;;;;;;4.48;81.44;102290.94;5020172;28;20508;-61
2024/01/13 10:31:04;;;;;;;24.75;22.10;;;;;;;4.48;81.64;102281.81;4999232;28;20033;-61
2024/01/13 10:33:31;;;;;;;25.10;22.40;;;;;;;4.48;81.43;102271.69;5007169;28;20176;-61
2024/01/13 10:35:59;;;;;;;24.75;22.13;;;;;;;4.47;81.42;102274.59;5021545;28;20095;-62
2024/01/13 10:38:25;;;;;;;23.90;21.40;;;;;;;4.47;81.65;102272.69;5086670;28;20043;-62
2024/01/13 10:40:51;;;;;;;24.50;21.63;;;;;;;4.50;81.54;102275.09;5013541;28;20033;-61
2024/01/13 10:43:17;;;;;;;25.60;21.27;;;;;;;4.49;81.49;102264.28;5023674;28;20088;-61
2024/01/13 10:45:49;;;;;;;23.95;21.35;;;;;;;4.48;81.80;102270.81;5053616;28;20500;-60
2024/01/13 10:48:32;;;;;;;23.63;21.05;;;;;;;4.52;81.72;102264.78;5066481;28;20038;-62
2024/01/13 10:50:57;;;;;;;25.67;22.25;;;;;;;4.49;81.52;102267.91;5036562;28;20037;-63
2024/01/13 10:53:26;;;;;;;24.45;20.60;;;;;;;4.48;81.62;102260.69;5025745;28;20041;-63
2024/01/13 10:55:53;;;;;;;24.80;22.13;;;;;;;4.49;81.75;102256.91;5028529;28;20025;-61
2024/01/13 10:58:24;;;;;;;26.17;23.45;;;;;;;4.49;81.52;102247.78;5039159;28;20097;-62
2024/01/13 11:00:52;;;;;;;27.25;24.23;;;;;;;4.51;81.63;102243.81;5031718;28;20049;-62
2024/01/13 11:03:19;;;;;;;27.17;22.88;;;;;;;4.53;81.46;102244.50;5051355;28;20039;-62
2024/01/13 11:05:44;;;;;;;27.92;22.65;;;;;;;4.51;81.23;102230.06;5018431;28;20187;-61
2024/01/13 11:08:10;;;;;;;24.35;21.40;;;;;;;4.53;81.33;102230.75;5047046;28;20118;-61
2024/01/13 11:10:45;;;;;;;25.83;22.15;;;;;;;4.53;81.28;102229.91;5075522;28;20024;-61
2024/01/13 11:13:17;;;;;;;24.13;21.50;;;;;;;4.53;81.04;102233.50;5046720;28;20178;-61